Bewolking Meer informatie Parkstad Weather Satellite


Neerslagradar Meer informatie Parkstad Rain Snow Radar


Onweersbuien Meer informatie Parkstad Lighntning


24/7 Weercamera Meer informatie Parkstad Weathercam


Natuurbrandrisico
CBI







METAR rapporten vliegvelden

   
EHAM - Amsterdam
Gewijzigd: 07-10-2022 18:25
Licht bewolkt  
Licht bewolkt  
   Wind: ZW 22.2 km/h
Wind: ZW 22.2 km/h
Temperatuur: 16°C
Dauwpunt: 11°C
Vochtigheid: 72%
Barometer: 1017 hPa
Satelliet beelden: Licht bewolkt
Zicht: meer dan 10 km
Bewolking: Licht bewolkt 610 m
EHAM 071625Z 22012KT 9999 FEW020 16/11 Q1017 NOSIG
EBAW - Antwerpen
Gewijzigd: 07-10-2022 18:20
  
  
   Wind: ZW 14.8 km/h
Wind: ZW 14.8 km/h
Zicht: meer dan 10 km
EBAW 071620Z AUTO 22008KT 9999 R11///// // VV/// 16/07 Q1019
EGLL - London
Gewijzigd: 07-10-2022 18:20
Gedeeltelijk bewolkt  
Gedeeltelijk bewolkt  
   Wind: ZW 25.9 km/h
Wind: ZW 25.9 km/h
Temperatuur: 17°C
Dauwpunt: 11°C
Vochtigheid: 68%
Barometer: 1016 hPa
Satelliet beelden: Gedeeltelijk bewolkt
Zicht: meer dan 10 km
Bewolking: Gedeeltelijk bewolkt 975 m
EGLL 071620Z AUTO 22014KT 9999 SCT032 17/11 Q1016
ELLX - Luxemburg
Gewijzigd: 07-10-2022 18:20
Helder  
Helder  
   Wind: Zuiden 7.4 km/h
Wind: Zuiden 7.4 km/h
Temperatuur: 13°C
Dauwpunt: 9°C
Vochtigheid: 77%
Barometer: 1020 hPa
Zicht: meer dan 10 km
Bewolking: Helder
ELLX 071620Z 17004KT CAVOK 13/09 Q1020 NOSIG
EDDM - München
Gewijzigd: 07-10-2022 18:20
Helder  
Helder  
   Wind: Zuiden 7.4 km/h
Wind: Zuiden 7.4 km/h
Temperatuur: 13°C
Dauwpunt: 11°C
Vochtigheid: 88%
Barometer: 1022 hPa
Zicht: meer dan 10 km
Bewolking: Helder
EDDM 071620Z AUTO 18004KT CAVOK 13/11 Q1022 NOSIG
LFPO - Parijs
Gewijzigd: 07-10-2022 18:30
Helder  
Helder  
   Wind: WZW 11.1 km/h
Wind: WZW 11.1 km/h
Temperatuur: 19°C
Dauwpunt: 6°C
Vochtigheid: 43%
Barometer: 1020 hPa
Zicht: meer dan 10 km
Bewolking: Helder
LFPO 071630Z 24006KT CAVOK 19/06 Q1020 NOSIG
EDDL - Düsseldorf
Gewijzigd: 07-10-2022 18:20
Helder  
Helder  
   Wind: ZW 14.8 km/h
Wind: ZW 14.8 km/h
Temperatuur: 15°C
Dauwpunt: 8°C
Vochtigheid: 63%
Barometer: 1019 hPa
Zicht: meer dan 10 km
Bewolking: Helder
EDDL 071620Z AUTO 23008KT CAVOK 15/08 Q1019 NOSIG
EDDK - Köln/Bonn Duitsland
Gewijzigd: 07-10-2022 18:50
Helder  
Helder  
   Wind: ZO 9.3 km/h
Wind: ZO 9.3 km/h
Temperatuur: 16°C
Dauwpunt: 9°C
Vochtigheid: 63%
Barometer: 1019 hPa
Zicht: meer dan 10 km
Bewolking: Helder
EDDK 071650Z AUTO 13005KT CAVOK 16/09 Q1019 NOSIG
TNCA - Oranjestad Aruba
Gewijzigd: 07-10-2022 18:00
Grotendeels bewolkt  
Grotendeels bewolkt  
   Wind: OZO 33.3 km/h
Wind: OZO 33.3 km/h
Temperatuur: 31°C
Gevoelstemperatuur: 39°C
Dauwpunt: 26°C
Vochtigheid: 75%
Barometer: 1010 hPa
Satelliet beelden: Grotendeels bewolkt
Zicht: meer dan 10 km
Bewolking: Grotendeels bewolkt 640 m
TNCA 071600Z 11018KT 9999 BKN021 31/26 Q1010 NOSIG
TNCC - Willemstad Curacao
Gewijzigd: 07-10-2022 18:00
Gedeeltelijk bewolkt  
Gedeeltelijk bewolkt  
   Wind: OZO 25.9 km/h
Wind: OZO 25.9 km/h
Temperatuur: 30°C
Gevoelstemperatuur: 36°C
Dauwpunt: 25°C
Vochtigheid: 75%
Barometer: 1011 hPa
Satelliet beelden: Gedeeltelijk bewolkt
Zicht: meer dan 10 km
Bewolking: Gedeeltelijk bewolkt 762 m
TNCC 071600Z 11014KT 9999 SCT025 30/25 Q1011 NOSIG
LEAL - La Nucia Spanje
Gewijzigd: 07-10-2022 18:30
Licht bewolkt  
Licht bewolkt  
   Wind: Oosten 16.7 km/h
Wind: Oosten 16.7 km/h
Temperatuur: 24°C
Dauwpunt: 17°C
Vochtigheid: 65%
Barometer: 1018 hPa
Satelliet beelden: Licht bewolkt
Zicht: meer dan 10 km
Bewolking: Licht bewolkt 671 m
LEAL 071630Z 09009KT 9999 FEW022 24/17 Q1018 NOSIG
 

Script ontwikkeld door  Saratoga-weather.org Aangepast voor de template door  Weerstation Leuven

U vindt ons ook hier:

Het Weer Aktueel

WOW Nederland KNMI

Vereniging voor Weerkunde en Klimatologie

UK Met Office Weather Observation Website (WOW)

WeatherCloud

Weather Underground

Awekas

MeteoMap.Cloud

HAMweather, WeatherForYou, PWS Weather

Citizen Weather Observer Program (CWOP)

Apparatuur in gebruik:

Hardwareleverancier
Weerhuisje

Weerstation
Vantage Pro2+ UV

Weercomputer's
alix3d2 & wl330n

Weerprogramma's
Smartbedded

Satelliet NOAA's
WRX137 & KX137

Satelliet Eumetsat
Ayecka SR1 & Triax

Bliksemdetectie
Boltek StormTracker

Webleverancier
F-Service

Weerhuisje

Vantage Pro2+ UV

alix3d2 & wl330n

Smartbedded

WRX137 & KX137

Ayecka SR1 & Triax

Boltek StormTracker

F-Service